sensor_id;sensor_type;location;lat;lon;timestamp;P1;durP1;ratioP1;P2;durP2;ratioP2
10142;SDS011;5112;54.088;13.446;2024-01-30T00:04:00;5.07;;;3.90;;
10142;SDS011;5112;54.088;13.446;2024-01-30T00:14:04;4.80;;;4.30;;
10142;SDS011;5112;54.088;13.446;2024-01-30T00:24:06;5.33;;;4.20;;
10142;SDS011;5112;54.088;13.446;2024-01-30T00:34:09;5.70;;;4.10;;
10142;SDS011;5112;54.088;13.446;2024-01-30T00:44:10;4.53;;;4.10;;
10142;SDS011;5112;54.088;13.446;2024-01-30T00:54:13;7.23;;;4.63;;
10142;SDS011;5112;54.088;13.446;2024-01-30T01:04:15;4.90;;;4.13;;
10142;SDS011;5112;54.088;13.446;2024-01-30T01:14:18;6.03;;;4.90;;
10142;SDS011;5112;54.088;13.446;2024-01-30T01:24:20;4.73;;;4.00;;
10142;SDS011;5112;54.088;13.446;2024-01-30T01:34:23;5.07;;;4.17;;
10142;SDS011;5112;54.088;13.446;2024-01-30T01:44:25;6.43;;;4.53;;
10142;SDS011;5112;54.088;13.446;2024-01-30T01:54:29;5.00;;;4.27;;
10142;SDS011;5112;54.088;13.446;2024-01-30T02:04:31;5.27;;;4.43;;
10142;SDS011;5112;54.088;13.446;2024-01-30T02:14:43;5.30;;;4.37;;
10142;SDS011;5112;54.088;13.446;2024-01-30T02:24:46;4.93;;;4.37;;
10142;SDS011;5112;54.088;13.446;2024-01-30T02:34:48;6.30;;;4.50;;
10142;SDS011;5112;54.088;13.446;2024-01-30T02:44:51;6.10;;;5.10;;
10142;SDS011;5112;54.088;13.446;2024-01-30T02:54:52;5.13;;;4.37;;
10142;SDS011;5112;54.088;13.446;2024-01-30T03:04:55;5.47;;;4.90;;
10142;SDS011;5112;54.088;13.446;2024-01-30T03:14:57;7.47;;;4.97;;
10142;SDS011;5112;54.088;13.446;2024-01-30T03:25:00;6.53;;;5.20;;
10142;SDS011;5112;54.088;13.446;2024-01-30T03:35:02;5.73;;;4.57;;
10142;SDS011;5112;54.088;13.446;2024-01-30T03:45:06;6.83;;;5.60;;
10142;SDS011;5112;54.088;13.446;2024-01-30T03:55:08;5.47;;;4.97;;
10142;SDS011;5112;54.088;13.446;2024-01-30T04:05:11;8.00;;;5.40;;
10142;SDS011;5112;54.088;13.446;2024-01-30T04:15:13;6.33;;;5.70;;
10142;SDS011;5112;54.088;13.446;2024-01-30T04:25:17;6.20;;;5.50;;
10142;SDS011;5112;54.088;13.446;2024-01-30T04:35:18;7.47;;;5.70;;
10142;SDS011;5112;54.088;13.446;2024-01-30T04:45:24;6.20;;;5.30;;
10142;SDS011;5112;54.088;13.446;2024-01-30T04:55:26;6.53;;;5.60;;
10142;SDS011;5112;54.088;13.446;2024-01-30T05:05:29;6.10;;;5.03;;
10142;SDS011;5112;54.088;13.446;2024-01-30T05:15:30;5.53;;;5.03;;
10142;SDS011;5112;54.088;13.446;2024-01-30T05:25:33;6.10;;;5.50;;
10142;SDS011;5112;54.088;13.446;2024-01-30T05:35:35;7.07;;;5.93;;
10142;SDS011;5112;54.088;13.446;2024-01-30T05:45:38;7.27;;;5.50;;
10142;SDS011;5112;54.088;13.446;2024-01-30T05:55:40;8.70;;;5.70;;
10142;SDS011;5112;54.088;13.446;2024-01-30T06:05:42;8.80;;;5.77;;
10142;SDS011;5112;54.088;13.446;2024-01-30T06:15:44;7.73;;;6.07;;
10142;SDS011;5112;54.088;13.446;2024-01-30T06:25:47;7.93;;;7.13;;
10142;SDS011;5112;54.088;13.446;2024-01-30T06:35:49;9.20;;;6.30;;
10142;SDS011;5112;54.088;13.446;2024-01-30T06:45:51;7.30;;;6.13;;
10142;SDS011;5112;54.088;13.446;2024-01-30T06:55:53;8.63;;;6.40;;
10142;SDS011;5112;54.088;13.446;2024-01-30T07:05:56;7.37;;;6.47;;
10142;SDS011;5112;54.088;13.446;2024-01-30T07:15:58;10.07;;;7.63;;
10142;SDS011;5112;54.088;13.446;2024-01-30T07:26:01;8.27;;;6.57;;
10142;SDS011;5112;54.088;13.446;2024-01-30T07:36:02;7.10;;;6.40;;
10142;SDS011;5112;54.088;13.446;2024-01-30T07:46:05;9.90;;;7.90;;
10142;SDS011;5112;54.088;13.446;2024-01-30T07:56:07;8.87;;;7.20;;
10142;SDS011;5112;54.088;13.446;2024-01-30T08:06:10;8.50;;;7.03;;
10142;SDS011;5112;54.088;13.446;2024-01-30T08:16:12;8.67;;;6.57;;
10142;SDS011;5112;54.088;13.446;2024-01-30T08:26:15;7.90;;;6.87;;
10142;SDS011;5112;54.088;13.446;2024-01-30T08:36:16;9.10;;;6.67;;
10142;SDS011;5112;54.088;13.446;2024-01-30T08:46:20;10.80;;;7.13;;
10142;SDS011;5112;54.088;13.446;2024-01-30T08:56:21;8.07;;;7.23;;
10142;SDS011;5112;54.088;13.446;2024-01-30T09:06:24;8.17;;;7.10;;
10142;SDS011;5112;54.088;13.446;2024-01-30T09:16:28;7.43;;;6.23;;
10142;SDS011;5112;54.088;13.446;2024-01-30T09:26:31;10.93;;;7.73;;
10142;SDS011;5112;54.088;13.446;2024-01-30T09:36:32;7.80;;;7.07;;
10142;SDS011;5112;54.088;13.446;2024-01-30T09:46:35;9.17;;;7.80;;
10142;SDS011;5112;54.088;13.446;2024-01-30T09:56:38;9.10;;;7.87;;
10142;SDS011;5112;54.088;13.446;2024-01-30T10:06:41;8.33;;;7.47;;
10142;SDS011;5112;54.088;13.446;2024-01-30T10:16:43;10.90;;;8.73;;
10142;SDS011;5112;54.088;13.446;2024-01-30T10:26:48;8.60;;;7.70;;
10142;SDS011;5112;54.088;13.446;2024-01-30T10:36:50;10.03;;;7.73;;
10142;SDS011;5112;54.088;13.446;2024-01-30T10:46:59;8.33;;;7.33;;
10142;SDS011;5112;54.088;13.446;2024-01-30T10:57:04;9.53;;;8.63;;
10142;SDS011;5112;54.088;13.446;2024-01-30T11:07:17;9.30;;;7.83;;
10142;SDS011;5112;54.088;13.446;2024-01-30T11:17:20;10.43;;;8.00;;
10142;SDS011;5112;54.088;13.446;2024-01-30T11:27:23;8.37;;;7.57;;
10142;SDS011;5112;54.088;13.446;2024-01-30T11:37:27;8.90;;;8.00;;
10142;SDS011;5112;54.088;13.446;2024-01-30T11:47:34;12.93;;;8.20;;
10142;SDS011;5112;54.088;13.446;2024-01-30T11:57:36;8.40;;;7.60;;
10142;SDS011;5112;54.088;13.446;2024-01-30T12:07:40;10.17;;;8.07;;
10142;SDS011;5112;54.088;13.446;2024-01-30T12:17:45;8.77;;;7.90;;
10142;SDS011;5112;54.088;13.446;2024-01-30T12:27:49;9.80;;;8.80;;
10142;SDS011;5112;54.088;13.446;2024-01-30T12:37:51;9.67;;;8.33;;
10142;SDS011;5112;54.088;13.446;2024-01-30T12:47:54;11.13;;;8.30;;
10142;SDS011;5112;54.088;13.446;2024-01-30T12:57:56;10.20;;;9.10;;
10142;SDS011;5112;54.088;13.446;2024-01-30T13:07:59;10.30;;;9.20;;
10142;SDS011;5112;54.088;13.446;2024-01-30T13:18:00;13.90;;;11.33;;
10142;SDS011;5112;54.088;13.446;2024-01-30T13:28:04;13.83;;;10.57;;
10142;SDS011;5112;54.088;13.446;2024-01-30T13:38:05;11.30;;;9.13;;
10142;SDS011;5112;54.088;13.446;2024-01-30T13:48:08;10.50;;;8.93;;
10142;SDS011;5112;54.088;13.446;2024-01-30T13:58:10;11.47;;;9.60;;
10142;SDS011;5112;54.088;13.446;2024-01-30T14:08:13;9.77;;;8.77;;
10142;SDS011;5112;54.088;13.446;2024-01-30T14:18:14;9.97;;;8.90;;
10142;SDS011;5112;54.088;13.446;2024-01-30T14:28:17;11.80;;;9.77;;
10142;SDS011;5112;54.088;13.446;2024-01-30T14:38:19;9.60;;;8.60;;
10142;SDS011;5112;54.088;13.446;2024-01-30T14:48:22;9.67;;;8.67;;
10142;SDS011;5112;54.088;13.446;2024-01-30T14:58:24;9.90;;;8.90;;
10142;SDS011;5112;54.088;13.446;2024-01-30T15:08:27;10.63;;;8.53;;
10142;SDS011;5112;54.088;13.446;2024-01-30T15:18:28;11.10;;;8.63;;
10142;SDS011;5112;54.088;13.446;2024-01-30T15:28:37;9.67;;;8.47;;
10142;SDS011;5112;54.088;13.446;2024-01-30T15:38:40;10.97;;;8.80;;
10142;SDS011;5112;54.088;13.446;2024-01-30T15:48:43;9.47;;;8.47;;
10142;SDS011;5112;54.088;13.446;2024-01-30T15:58:44;9.33;;;8.30;;
10142;SDS011;5112;54.088;13.446;2024-01-30T16:08:50;8.50;;;7.60;;
10142;SDS011;5112;54.088;13.446;2024-01-30T16:18:52;10.73;;;8.33;;
10142;SDS011;5112;54.088;13.446;2024-01-30T16:28:55;9.33;;;8.20;;
10142;SDS011;5112;54.088;13.446;2024-01-30T16:38:56;9.73;;;8.47;;
10142;SDS011;5112;54.088;13.446;2024-01-30T16:49:00;9.60;;;8.20;;
10142;SDS011;5112;54.088;13.446;2024-01-30T16:59:01;9.27;;;7.37;;
10142;SDS011;5112;54.088;13.446;2024-01-30T17:09:04;9.77;;;8.53;;
10142;SDS011;5112;54.088;13.446;2024-01-30T17:19:07;11.83;;;10.00;;
10142;SDS011;5112;54.088;13.446;2024-01-30T17:29:10;13.03;;;9.63;;
10142;SDS011;5112;54.088;13.446;2024-01-30T17:39:14;10.27;;;9.20;;
10142;SDS011;5112;54.088;13.446;2024-01-30T17:49:17;9.17;;;8.27;;
10142;SDS011;5112;54.088;13.446;2024-01-30T17:59:18;10.90;;;8.97;;
10142;SDS011;5112;54.088;13.446;2024-01-30T18:09:23;9.87;;;8.83;;
10142;SDS011;5112;54.088;13.446;2024-01-30T18:19:25;10.77;;;8.87;;
10142;SDS011;5112;54.088;13.446;2024-01-30T18:29:28;11.57;;;10.40;;
10142;SDS011;5112;54.088;13.446;2024-01-30T18:39:30;11.97;;;8.83;;
10142;SDS011;5112;54.088;13.446;2024-01-30T18:49:32;11.50;;;10.30;;
10142;SDS011;5112;54.088;13.446;2024-01-30T18:59:34;11.50;;;9.60;;
10142;SDS011;5112;54.088;13.446;2024-01-30T19:09:37;12.10;;;10.03;;
10142;SDS011;5112;54.088;13.446;2024-01-30T19:19:39;10.47;;;8.53;;
10142;SDS011;5112;54.088;13.446;2024-01-30T19:29:41;12.10;;;9.23;;
10142;SDS011;5112;54.088;13.446;2024-01-30T19:39:43;12.60;;;10.37;;
10142;SDS011;5112;54.088;13.446;2024-01-30T19:49:46;11.73;;;9.53;;
10142;SDS011;5112;54.088;13.446;2024-01-30T19:59:48;13.30;;;10.43;;
10142;SDS011;5112;54.088;13.446;2024-01-30T20:09:52;12.10;;;10.13;;
10142;SDS011;5112;54.088;13.446;2024-01-30T20:19:53;10.87;;;9.20;;
10142;SDS011;5112;54.088;13.446;2024-01-30T20:29:56;13.23;;;10.17;;
10142;SDS011;5112;54.088;13.446;2024-01-30T20:40:07;11.40;;;10.20;;
10142;SDS011;5112;54.088;13.446;2024-01-30T20:50:09;12.27;;;10.13;;
10142;SDS011;5112;54.088;13.446;2024-01-30T21:00:13;13.33;;;11.07;;
10142;SDS011;5112;54.088;13.446;2024-01-30T21:10:16;12.67;;;10.77;;
10142;SDS011;5112;54.088;13.446;2024-01-30T21:20:19;17.53;;;13.43;;
10142;SDS011;5112;54.088;13.446;2024-01-30T21:30:21;15.27;;;12.77;;
10142;SDS011;5112;54.088;13.446;2024-01-30T21:40:24;17.53;;;12.57;;
10142;SDS011;5112;54.088;13.446;2024-01-30T21:50:25;13.47;;;11.97;;
10142;SDS011;5112;54.088;13.446;2024-01-30T22:00:28;13.83;;;11.20;;
10142;SDS011;5112;54.088;13.446;2024-01-30T22:10:30;12.60;;;11.30;;
10142;SDS011;5112;54.088;13.446;2024-01-30T22:20:33;14.03;;;11.40;;
10142;SDS011;5112;54.088;13.446;2024-01-30T22:30:35;14.37;;;11.17;;
10142;SDS011;5112;54.088;13.446;2024-01-30T22:40:38;12.30;;;10.90;;
10142;SDS011;5112;54.088;13.446;2024-01-30T22:50:39;13.07;;;11.67;;
10142;SDS011;5112;54.088;13.446;2024-01-30T23:00:42;12.50;;;11.20;;
10142;SDS011;5112;54.088;13.446;2024-01-30T23:10:44;13.00;;;11.70;;
10142;SDS011;5112;54.088;13.446;2024-01-30T23:20:47;13.80;;;11.83;;
10142;SDS011;5112;54.088;13.446;2024-01-30T23:30:48;14.53;;;13.00;;
10142;SDS011;5112;54.088;13.446;2024-01-30T23:40:51;18.23;;;12.97;;
10142;SDS011;5112;54.088;13.446;2024-01-30T23:50:53;16.53;;;12.07;;
